createdAt,value
2022-10-23T00:01:26.491Z,9.48
2022-10-23T00:04:01.376Z,13.15
2022-10-23T00:06:31.708Z,10.57
2022-10-23T00:09:00.249Z,9.10
2022-10-23T00:11:29.017Z,7.93
2022-10-23T00:13:58.695Z,4.38
2022-10-23T00:16:28.837Z,8.30
2022-10-23T00:18:55.712Z,10.35
2022-10-23T00:21:22.650Z,8.07
2022-10-23T00:23:49.433Z,4.93
2022-10-23T00:26:16.293Z,7.63
2022-10-23T00:28:50.970Z,7.40
2022-10-23T00:31:18.388Z,5.82
2022-10-23T00:33:49.431Z,10.43
2022-10-23T00:36:18.465Z,6.40
2022-10-23T00:38:45.324Z,7.03
2022-10-23T00:41:28.452Z,6.28
2022-10-23T00:44:04.064Z,9.48
2022-10-23T00:46:31.122Z,7.18
2022-10-23T00:48:58.224Z,4.97
2022-10-23T00:51:27.645Z,6.95
2022-10-23T00:54:12.709Z,6.40
2022-10-23T00:56:47.111Z,6.43
2022-10-23T00:59:14.026Z,8.85
2022-10-23T01:01:41.319Z,7.57
2022-10-23T01:04:09.043Z,8.00
2022-10-23T01:06:51.074Z,9.60
2022-10-23T01:11:56.326Z,9.15
2022-10-23T01:14:42.939Z,6.43
2022-10-23T01:17:12.123Z,7.18
2022-10-23T01:19:51.100Z,11.27
2022-10-23T01:22:35.817Z,7.68
2022-10-23T01:25:10.366Z,12.60
2022-10-23T01:27:42.232Z,7.15
2022-10-23T01:32:48.328Z,7.97
2022-10-23T01:35:24.827Z,6.55
2022-10-23T01:38:01.338Z,7.15
2022-10-23T01:40:37.457Z,6.18
2022-10-23T01:43:16.499Z,9.20
2022-10-23T01:45:51.230Z,6.35
2022-10-23T01:48:25.064Z,7.95
2022-10-23T01:50:55.475Z,10.18
2022-10-23T01:53:23.382Z,9.93
2022-10-23T01:55:51.157Z,7.13
2022-10-23T01:58:21.053Z,6.95
2022-10-23T02:00:52.166Z,4.82
2022-10-23T02:03:19.028Z,4.10
2022-10-23T02:05:45.842Z,9.75
2022-10-23T02:08:12.734Z,6.40
2022-10-23T02:10:42.175Z,14.50
2022-10-23T02:13:19.131Z,8.55
2022-10-23T02:15:59.751Z,7.10
2022-10-23T02:18:31.897Z,8.57
2022-10-23T02:21:09.466Z,10.02
2022-10-23T02:23:47.054Z,5.50
2022-10-23T02:26:21.167Z,11.05
2022-10-23T02:28:57.166Z,10.10
2022-10-23T02:31:24.435Z,5.38
2022-10-23T02:33:51.062Z,5.10
2022-10-23T02:36:19.193Z,9.43
2022-10-23T02:38:45.968Z,12.50
2022-10-23T02:41:32.656Z,8.20
2022-10-23T02:44:10.714Z,6.60
2022-10-23T02:46:43.045Z,10.27
2022-10-23T02:49:20.079Z,9.73
2022-10-23T02:51:57.306Z,6.70
2022-10-23T02:54:50.907Z,6.32
2022-10-23T02:57:36.806Z,7.13
2022-10-23T03:00:11.565Z,6.95
2022-10-23T03:02:46.181Z,11.25
2022-10-23T03:05:18.543Z,7.72
2022-10-23T03:07:46.823Z,10.73
2022-10-23T03:10:13.861Z,8.15
2022-10-23T03:12:40.999Z,6.35
2022-10-23T03:15:08.674Z,6.80
2022-10-23T03:17:35.154Z,10.35
2022-10-23T03:20:01.715Z,12.40
2022-10-23T03:22:28.214Z,5.53
2022-10-23T03:24:54.752Z,6.85
2022-10-23T03:27:24.531Z,12.15
2022-10-23T03:29:51.123Z,9.40
2022-10-23T03:32:20.431Z,6.85
2022-10-23T03:34:46.900Z,7.47
2022-10-23T03:37:13.392Z,8.40
2022-10-23T03:39:40.055Z,4.13
2022-10-23T03:42:06.522Z,5.18
2022-10-23T03:44:34.169Z,5.72
2022-10-23T03:47:01.218Z,8.63
2022-10-23T03:49:27.664Z,7.70
2022-10-23T03:51:54.218Z,6.75
2022-10-23T03:54:23.399Z,9.70
2022-10-23T03:56:53.622Z,5.95
2022-10-23T03:59:23.309Z,10.00
2022-10-23T04:01:49.893Z,6.25
2022-10-23T04:04:17.273Z,9.15
2022-10-23T04:06:44.219Z,4.70
2022-10-23T04:11:42.766Z,8.55
2022-10-23T04:14:12.571Z,9.35
2022-10-23T04:16:39.365Z,8.55
2022-10-23T04:19:09.091Z,8.68
2022-10-23T04:21:35.648Z,10.38
2022-10-23T04:24:02.159Z,11.80
2022-10-23T04:26:28.623Z,8.48
2022-10-23T04:28:55.305Z,7.45
2022-10-23T04:31:21.820Z,6.82
2022-10-23T04:33:48.360Z,9.43
2022-10-23T04:36:14.835Z,7.55
2022-10-23T04:38:41.338Z,9.18
2022-10-23T04:41:07.927Z,10.65
2022-10-23T04:43:34.529Z,11.13
2022-10-23T04:46:00.997Z,10.38
2022-10-23T04:48:29.173Z,8.40
2022-10-23T04:51:01.510Z,15.63
2022-10-23T04:53:29.278Z,12.13
2022-10-23T04:55:57.971Z,9.80
2022-10-23T04:58:25.672Z,7.20
2022-10-23T05:00:52.893Z,10.63
2022-10-23T05:03:19.805Z,8.45
2022-10-23T05:05:46.583Z,8.32
2022-10-23T05:08:17.082Z,7.63
2022-10-23T05:10:44.791Z,13.73
2022-10-23T05:13:11.278Z,6.80
2022-10-23T05:15:37.852Z,8.60
2022-10-23T05:18:30.260Z,9.60
2022-10-23T05:23:27.004Z,9.35
2022-10-23T05:25:53.612Z,7.40
2022-10-23T05:28:20.174Z,13.07
2022-10-23T05:30:47.118Z,9.27
2022-10-23T05:33:13.987Z,10.02
2022-10-23T05:35:44.219Z,9.13
2022-10-23T05:38:11.674Z,10.18
2022-10-23T05:43:05.618Z,8.50
2022-10-23T05:45:32.088Z,6.70
2022-10-23T05:48:10.619Z,8.98
2022-10-23T05:50:46.175Z,7.68
2022-10-23T05:53:12.824Z,7.57
2022-10-23T05:55:39.314Z,9.02
2022-10-23T05:58:05.819Z,6.68
2022-10-23T06:00:32.894Z,10.73
2022-10-23T06:03:00.998Z,6.90
2022-10-23T06:05:27.547Z,10.45
2022-10-23T06:08:00.183Z,11.82
2022-10-23T06:10:27.365Z,13.45
2022-10-23T06:12:53.851Z,13.70
2022-10-23T06:15:20.352Z,9.50
2022-10-23T06:17:46.895Z,7.72
2022-10-23T06:20:13.441Z,13.48
2022-10-23T06:22:40.257Z,10.63
2022-10-23T06:25:07.759Z,10.02
2022-10-23T06:27:34.234Z,11.23
2022-10-23T06:30:00.777Z,10.65
2022-10-23T06:32:27.256Z,8.95
2022-10-23T06:34:53.672Z,11.32
2022-10-23T06:37:20.173Z,12.05
2022-10-23T06:39:46.643Z,15.60
2022-10-23T06:42:13.201Z,10.38
2022-10-23T06:44:39.676Z,13.13
2022-10-23T06:47:06.785Z,19.70
2022-10-23T06:49:33.291Z,17.80
2022-10-23T06:51:59.731Z,16.55
2022-10-23T06:54:26.365Z,13.13
2022-10-23T06:56:53.336Z,21.40
2022-10-23T06:59:19.893Z,18.45
2022-10-23T07:01:46.974Z,14.23
2022-10-23T07:04:16.414Z,14.55
2022-10-23T07:06:43.585Z,13.65
2022-10-23T07:09:10.099Z,11.38
2022-10-23T07:11:37.393Z,21.92
2022-10-23T07:14:04.045Z,15.93
2022-10-23T07:16:31.918Z,17.23
2022-10-23T07:19:01.059Z,13.43
2022-10-23T07:21:29.766Z,12.13
2022-10-23T07:23:57.610Z,14.98
2022-10-23T07:26:24.883Z,11.35
2022-10-23T07:28:55.004Z,11.00
2022-10-23T07:31:28.061Z,10.25
2022-10-23T07:33:54.975Z,11.45
2022-10-23T07:36:21.803Z,9.43
2022-10-23T07:38:48.353Z,7.18
2022-10-23T07:41:15.472Z,6.78
2022-10-23T07:43:41.981Z,7.53
2022-10-23T07:46:09.917Z,8.30
2022-10-23T07:48:37.821Z,5.00
2022-10-23T07:51:11.770Z,8.02
2022-10-23T07:53:38.847Z,15.93
2022-10-23T07:56:16.554Z,8.68
2022-10-23T07:58:43.842Z,7.28
2022-10-23T08:01:18.658Z,8.43
2022-10-23T08:03:45.583Z,5.20
2022-10-23T08:06:12.503Z,6.85
2022-10-23T08:08:39.029Z,6.85
2022-10-23T08:11:05.936Z,3.83
2022-10-23T08:13:32.427Z,6.78
2022-10-23T08:15:59.455Z,11.10
2022-10-23T08:18:25.891Z,6.75
2022-10-23T08:20:52.938Z,5.13
2022-10-23T08:23:20.226Z,8.13
2022-10-23T08:25:47.395Z,7.88
2022-10-23T08:28:14.970Z,10.20
2022-10-23T08:30:41.473Z,5.68
2022-10-23T08:33:08.056Z,6.82
2022-10-23T08:35:38.350Z,6.80
2022-10-23T08:38:06.319Z,6.03
2022-10-23T08:40:33.048Z,3.47
2022-10-23T08:43:05.323Z,4.28
2022-10-23T08:45:58.466Z,11.10
2022-10-23T08:48:38.384Z,11.27
2022-10-23T08:51:16.162Z,6.32
2022-10-23T08:54:02.757Z,7.43
2022-10-23T08:56:39.384Z,4.90
2022-10-23T08:59:24.983Z,4.80
2022-10-23T09:02:11.620Z,7.35
2022-10-23T09:04:38.262Z,8.40
2022-10-23T09:07:35.276Z,6.68
2022-10-23T09:10:10.486Z,11.10
2022-10-23T09:12:37.373Z,5.78
2022-10-23T09:15:28.377Z,6.15
2022-10-23T09:18:00.910Z,4.90
2022-10-23T09:20:31.975Z,3.97
2022-10-23T09:23:02.716Z,3.80
2022-10-23T09:25:41.212Z,2.72
2022-10-23T09:28:18.871Z,3.75
2022-10-23T09:30:45.378Z,5.82
2022-10-23T09:33:16.352Z,5.78
2022-10-23T09:36:02.304Z,2.72
2022-10-23T09:38:39.229Z,5.28
2022-10-23T09:41:24.586Z,2.95
2022-10-23T09:44:15.666Z,4.72
2022-10-23T09:46:44.847Z,5.35
2022-10-23T09:49:20.742Z,5.63
2022-10-23T09:52:10.425Z,7.35
2022-10-23T09:54:39.975Z,6.63
2022-10-23T09:57:23.554Z,4.53
2022-10-23T09:59:55.268Z,4.65
2022-10-23T10:02:27.448Z,5.53
2022-10-23T10:04:54.580Z,6.07
2022-10-23T10:07:31.147Z,8.05
2022-10-23T10:10:00.145Z,1.85
2022-10-23T10:12:37.493Z,4.15
2022-10-23T10:15:14.919Z,6.28
2022-10-23T10:17:47.188Z,7.35
2022-10-23T10:20:38.556Z,11.20
2022-10-23T10:23:28.575Z,2.97
2022-10-23T10:26:17.163Z,3.20
2022-10-23T10:29:02.238Z,12.48
2022-10-23T10:31:53.313Z,4.82
2022-10-23T10:34:35.006Z,8.05
2022-10-23T10:37:13.906Z,7.07
2022-10-23T10:39:55.639Z,7.70
2022-10-23T10:43:04.510Z,5.03
2022-10-23T10:45:33.855Z,7.25
2022-10-23T10:48:37.176Z,7.15
2022-10-23T10:51:11.928Z,9.27
2022-10-23T10:53:49.292Z,3.78
2022-10-23T10:56:18.894Z,6.35
2022-10-23T10:58:56.576Z,2.22
2022-10-23T11:01:28.715Z,4.40
2022-10-23T11:04:06.746Z,7.55
2022-10-23T11:06:36.541Z,5.05
2022-10-23T11:09:20.751Z,7.00
2022-10-23T11:11:48.719Z,3.35
2022-10-23T11:14:24.344Z,3.08
2022-10-23T11:16:53.629Z,3.28
2022-10-23T11:19:25.537Z,7.80
2022-10-23T11:24:59.602Z,7.15
2022-10-23T11:27:35.213Z,2.35
2022-10-23T11:30:30.991Z,4.07
2022-10-23T11:33:34.651Z,5.70
2022-10-23T11:36:17.135Z,3.15
2022-10-23T11:38:46.459Z,2.40
2022-10-23T11:41:27.173Z,3.17
2022-10-23T11:44:03.993Z,3.03
2022-10-23T11:46:40.847Z,2.90
2022-10-23T11:49:21.256Z,1.35
2022-10-23T11:51:47.983Z,5.10
2022-10-23T11:54:17.571Z,2.25
2022-10-23T11:57:11.516Z,6.53
2022-10-23T11:59:52.511Z,3.25
2022-10-23T12:02:32.961Z,10.02
2022-10-23T12:05:09.588Z,4.32
2022-10-23T12:07:38.349Z,3.40
2022-10-23T12:10:17.449Z,4.80
2022-10-23T12:12:55.512Z,5.07
2022-10-23T12:15:23.550Z,10.50
2022-10-23T12:17:51.198Z,6.10
2022-10-23T12:20:44.810Z,5.32
2022-10-23T12:23:26.299Z,4.55
2022-10-23T12:26:14.453Z,3.72
2022-10-23T12:29:19.108Z,4.03
2022-10-23T12:32:12.467Z,3.35
2022-10-23T12:35:23.922Z,5.70
2022-10-23T12:37:59.151Z,6.70
2022-10-23T12:40:30.209Z,8.23
2022-10-23T12:42:59.521Z,3.90
2022-10-23T12:45:31.964Z,4.78
2022-10-23T12:47:58.474Z,3.00
2022-10-23T12:50:27.660Z,14.15
2022-10-23T12:52:57.133Z,3.08
2022-10-23T12:55:25.610Z,5.68
2022-10-23T12:57:54.551Z,3.42
2022-10-23T13:00:23.731Z,2.00
2022-10-23T13:03:04.114Z,9.43
2022-10-23T13:05:32.179Z,2.88
2022-10-23T13:08:00.816Z,7.75
2022-10-23T13:10:27.778Z,4.75
2022-10-23T13:13:02.609Z,2.65
2022-10-23T13:15:40.682Z,4.05
2022-10-23T13:18:08.718Z,3.58
2022-10-23T13:20:42.308Z,2.45
2022-10-23T13:23:19.134Z,3.13
2022-10-23T13:25:56.774Z,4.30
2022-10-23T13:28:29.284Z,3.88
2022-10-23T13:30:58.747Z,2.42
2022-10-23T13:33:31.418Z,1.88
2022-10-23T13:36:16.587Z,4.03
2022-10-23T13:38:47.237Z,4.82
2022-10-23T13:41:17.677Z,3.13
2022-10-23T13:43:46.010Z,8.80
2022-10-23T13:46:17.438Z,3.17
2022-10-23T13:48:44.048Z,3.20
2022-10-23T13:51:14.919Z,3.42
2022-10-23T13:53:41.856Z,3.17
2022-10-23T13:56:11.963Z,2.35
2022-10-23T13:58:38.688Z,5.88
2022-10-23T14:01:06.474Z,2.35
2022-10-23T14:03:33.047Z,3.00
2022-10-23T14:06:00.468Z,2.17
2022-10-23T14:08:26.922Z,4.22
2022-10-23T14:10:53.481Z,2.97
2022-10-23T14:13:19.957Z,8.18
2022-10-23T14:15:53.861Z,2.72
2022-10-23T14:18:20.748Z,2.13
2022-10-23T14:20:47.548Z,2.60
2022-10-23T14:23:14.007Z,1.33
2022-10-23T14:25:40.537Z,4.93
2022-10-23T14:28:07.053Z,4.97
2022-10-23T14:30:36.540Z,2.08
2022-10-23T14:33:03.380Z,1.90
2022-10-23T14:35:29.926Z,6.05
2022-10-23T14:37:57.870Z,2.22
2022-10-23T14:40:24.427Z,2.33
2022-10-23T14:42:50.982Z,4.70
2022-10-23T14:45:17.466Z,7.80
2022-10-23T14:47:44.297Z,4.85
2022-10-23T14:50:12.022Z,2.40
2022-10-23T14:52:38.509Z,2.30
2022-10-23T14:55:05.291Z,1.75
2022-10-23T14:57:31.782Z,3.58
2022-10-23T14:59:58.242Z,1.10
2022-10-23T15:02:24.758Z,0.98
2022-10-23T15:04:51.225Z,4.13
2022-10-23T15:07:17.819Z,5.25
2022-10-23T15:09:44.296Z,3.83
2022-10-23T15:12:10.796Z,1.05
2022-10-23T15:14:37.367Z,4.40
2022-10-23T15:17:04.345Z,3.80
2022-10-23T15:19:31.172Z,1.75
2022-10-23T15:21:57.679Z,4.30
2022-10-23T15:24:24.479Z,3.13
2022-10-23T15:26:51.889Z,2.28
2022-10-23T15:29:19.389Z,1.83
2022-10-23T15:31:54.530Z,3.75
2022-10-23T15:34:24.605Z,3.40
2022-10-23T15:36:52.638Z,5.30
2022-10-23T15:39:22.161Z,1.95
2022-10-23T15:41:52.985Z,2.58
2022-10-23T15:44:21.583Z,7.05
2022-10-23T15:46:48.656Z,5.35
2022-10-23T15:49:15.465Z,1.75
2022-10-23T15:51:42.401Z,1.08
2022-10-23T15:54:13.136Z,2.60
2022-10-23T15:56:39.815Z,2.58
2022-10-23T15:59:06.271Z,2.88
2022-10-23T16:01:32.902Z,2.10
2022-10-23T16:03:59.433Z,3.47
2022-10-23T16:06:26.301Z,6.10
2022-10-23T16:11:27.192Z,6.13
2022-10-23T16:13:58.218Z,2.53
2022-10-23T16:16:25.010Z,7.60
2022-10-23T16:18:52.796Z,3.65
2022-10-23T16:21:25.804Z,5.13
2022-10-23T16:23:53.996Z,5.05
2022-10-23T16:26:21.364Z,3.72
2022-10-23T16:28:48.231Z,4.32
2022-10-23T16:31:20.010Z,4.00
2022-10-23T16:33:48.015Z,9.70
2022-10-23T16:36:14.554Z,5.55
2022-10-23T16:38:41.139Z,9.30
2022-10-23T16:41:07.686Z,3.08
2022-10-23T16:43:34.325Z,3.88
2022-10-23T16:46:06.390Z,5.10
2022-10-23T16:48:34.690Z,3.80
2022-10-23T16:51:05.528Z,1.10
2022-10-23T16:53:33.202Z,5.50
2022-10-23T16:56:00.114Z,0.95
2022-10-23T16:58:27.405Z,5.80
2022-10-23T17:01:02.402Z,4.03
2022-10-23T17:03:29.855Z,2.70
2022-10-23T17:06:01.733Z,2.88
2022-10-23T17:08:28.828Z,2.45
2022-10-23T17:11:08.514Z,3.22
2022-10-23T17:13:37.022Z,5.32
2022-10-23T17:16:10.031Z,3.25
2022-10-23T17:18:41.295Z,5.00
2022-10-23T17:21:11.953Z,4.53
2022-10-23T17:23:38.573Z,3.33
2022-10-23T17:26:09.034Z,4.13
2022-10-23T17:28:39.852Z,5.28
2022-10-23T17:31:33.394Z,5.50
2022-10-23T17:34:06.314Z,4.55
2022-10-23T17:36:37.055Z,2.72
2022-10-23T17:39:07.736Z,2.10
2022-10-23T17:41:35.206Z,5.45
2022-10-23T17:44:01.723Z,2.50
2022-10-23T17:46:31.837Z,2.30
2022-10-23T17:51:34.806Z,3.33
2022-10-23T17:54:04.248Z,1.45
2022-10-23T17:56:32.740Z,4.38
2022-10-23T17:59:23.609Z,4.15
2022-10-23T18:01:50.781Z,2.70
2022-10-23T18:04:20.000Z,5.20
2022-10-23T18:06:52.569Z,2.95
2022-10-23T18:09:23.080Z,2.53
2022-10-23T18:11:50.372Z,6.40
2022-10-23T18:14:20.377Z,5.28
2022-10-23T18:16:47.086Z,2.67
2022-10-23T18:19:15.629Z,3.88
2022-10-23T18:21:42.362Z,6.15
2022-10-23T18:24:09.085Z,3.83
2022-10-23T18:26:39.068Z,6.15
2022-10-23T18:29:07.839Z,4.85
2022-10-23T18:31:37.087Z,6.15
2022-10-23T18:34:07.663Z,7.38
2022-10-23T18:36:37.334Z,11.82
2022-10-23T18:39:06.813Z,5.32
2022-10-23T18:41:39.042Z,5.75
2022-10-23T18:44:05.982Z,4.32
2022-10-23T18:46:33.021Z,6.22
2022-10-23T18:48:59.779Z,3.20
2022-10-23T18:51:30.385Z,2.33
2022-10-23T18:53:57.600Z,3.70
2022-10-23T18:56:26.686Z,4.50
2022-10-23T18:58:58.761Z,4.20
2022-10-23T19:01:27.216Z,7.00
2022-10-23T19:06:27.520Z,8.63
2022-10-23T19:08:54.282Z,7.88
2022-10-23T19:11:24.119Z,7.28
2022-10-23T19:13:50.994Z,6.40
2022-10-23T19:16:27.790Z,5.25
2022-10-23T19:18:58.895Z,5.38
2022-10-23T19:21:31.746Z,5.97
2022-10-23T19:24:05.887Z,7.80
2022-10-23T19:26:34.641Z,5.93
2022-10-23T19:29:01.787Z,8.05
2022-10-23T19:31:28.443Z,8.18
2022-10-23T19:33:55.010Z,8.88
2022-10-23T19:36:23.447Z,10.82
2022-10-23T19:38:50.499Z,8.43
2022-10-23T19:41:18.367Z,6.38
2022-10-23T19:43:45.218Z,9.48
2022-10-23T19:46:12.323Z,11.10
2022-10-23T19:48:43.584Z,9.77
2022-10-23T19:51:10.704Z,8.57
2022-10-23T19:53:37.899Z,11.35
2022-10-23T19:56:06.653Z,11.38
2022-10-23T19:58:33.692Z,10.88
2022-10-23T20:01:11.690Z,11.40
2022-10-23T20:03:39.629Z,7.22
2022-10-23T20:06:09.336Z,8.27
2022-10-23T20:08:35.948Z,13.13
2022-10-23T20:11:02.768Z,5.88
2022-10-23T20:13:29.323Z,9.73
2022-10-23T20:15:55.913Z,11.23
2022-10-23T20:18:25.658Z,8.90
2022-10-23T20:20:52.936Z,7.03
2022-10-23T20:23:20.146Z,8.20
2022-10-23T20:25:46.693Z,5.75
2022-10-23T20:28:15.115Z,5.70
2022-10-23T20:30:42.522Z,3.50
2022-10-23T20:33:09.396Z,5.72
2022-10-23T20:35:42.763Z,3.70
2022-10-23T20:38:10.049Z,7.15
2022-10-23T20:40:36.613Z,7.28
2022-10-23T20:43:03.192Z,5.45
2022-10-23T20:45:29.676Z,3.88
2022-10-23T20:47:59.366Z,4.53
2022-10-23T20:50:25.869Z,4.78
2022-10-23T20:52:52.346Z,3.28
2022-10-23T20:55:19.617Z,3.03
2022-10-23T20:57:46.660Z,6.85
2022-10-23T21:00:13.749Z,6.50
2022-10-23T21:02:40.362Z,3.13
2022-10-23T21:05:07.378Z,5.68
2022-10-23T21:07:34.036Z,7.60
2022-10-23T21:10:01.154Z,4.35
2022-10-23T21:12:30.509Z,6.20
2022-10-23T21:14:57.105Z,4.18
2022-10-23T21:17:23.699Z,4.70
2022-10-23T21:19:50.224Z,4.18
2022-10-23T21:22:16.866Z,3.60
2022-10-23T21:24:43.568Z,6.40
2022-10-23T21:27:10.091Z,5.90
2022-10-23T21:29:36.543Z,4.50
2022-10-23T21:32:06.604Z,3.67
2022-10-23T21:34:33.091Z,3.53
2022-10-23T21:37:12.468Z,8.10
2022-10-23T21:39:39.810Z,3.53
2022-10-23T21:42:09.368Z,3.55
2022-10-23T21:44:35.909Z,3.65
2022-10-23T21:47:02.472Z,4.55
2022-10-23T21:49:32.508Z,3.95
2022-10-23T21:51:59.031Z,5.70
2022-10-23T21:54:25.572Z,6.85
2022-10-23T21:56:53.868Z,4.18
2022-10-23T21:59:24.094Z,3.38
2022-10-23T22:01:51.699Z,3.38
2022-10-23T22:04:19.645Z,2.58
2022-10-23T22:06:48.784Z,4.68
2022-10-23T22:09:23.662Z,2.03
2022-10-23T22:11:54.505Z,4.45
2022-10-23T22:14:22.168Z,3.45
2022-10-23T22:16:49.319Z,3.97
2022-10-23T22:19:17.081Z,5.05
2022-10-23T22:21:44.039Z,4.78
2022-10-23T22:24:10.833Z,2.67
2022-10-23T22:26:48.598Z,4.22
2022-10-23T22:29:19.729Z,2.78
2022-10-23T22:31:50.091Z,4.38
2022-10-23T22:37:15.149Z,1.42
2022-10-23T22:39:42.175Z,4.43
2022-10-23T22:42:12.167Z,2.22
2022-10-23T22:44:38.636Z,2.33
2022-10-23T22:47:05.137Z,2.78
2022-10-23T22:49:34.277Z,3.90
2022-10-23T22:52:00.771Z,7.18
2022-10-23T22:54:27.320Z,3.78
2022-10-23T22:56:57.010Z,3.65
2022-10-23T22:59:23.539Z,4.30
2022-10-23T23:01:51.111Z,5.90
2022-10-23T23:07:09.847Z,6.07
2022-10-23T23:09:41.539Z,7.15
2022-10-23T23:12:12.738Z,6.00
2022-10-23T23:14:40.193Z,5.88
2022-10-23T23:17:07.904Z,4.15
2022-10-23T23:19:35.723Z,7.05
2022-10-23T23:22:02.403Z,9.05
2022-10-23T23:24:32.257Z,6.35
2022-10-23T23:26:58.829Z,12.43
2022-10-23T23:29:29.553Z,7.20
2022-10-23T23:31:56.162Z,8.25
2022-10-23T23:34:22.886Z,9.50
2022-10-23T23:36:49.384Z,6.38
2022-10-23T23:39:16.373Z,5.30
2022-10-23T23:41:42.873Z,6.28
2022-10-23T23:44:09.982Z,8.75
2022-10-23T23:46:36.471Z,8.52
2022-10-23T23:49:03.155Z,7.50
2022-10-23T23:51:31.340Z,6.70
2022-10-23T23:53:57.828Z,9.30
2022-10-23T23:56:28.173Z,9.77
2022-10-23T23:58:58.658Z,8.07
